TimeEDT,TemperatureF,Dew PointF,Humidity,Sea Level PressureIn,VisibilityMPH,Wind Direction,Wind SpeedMPH,Gust SpeedMPH,PrecipitationIn,Events,Conditions,WindDirDegrees,DateUTC
12:53 AM,66.9,63.0,87,29.89,9.0,South,5.8,-,N/A,,Clear,190,2013-06-18 04:53:00
1:53 AM,66.0,62.1,87,29.88,8.0,Calm,Calm,-,N/A,,Clear,0,2013-06-18 05:53:00
2:53 AM,66.0,63.0,90,29.87,7.0,South,4.6,-,N/A,,Clear,190,2013-06-18 06:53:00
3:53 AM,64.9,63.0,93,29.87,6.0,SSE,4.6,-,N/A,,Clear,160,2013-06-18 07:53:00
4:53 AM,64.9,63.0,93,29.88,5.0,Calm,Calm,-,N/A,,Partly Cloudy,0,2013-06-18 08:53:00
5:53 AM,64.9,63.0,93,29.88,5.0,Calm,Calm,-,N/A,,Partly Cloudy,0,2013-06-18 09:53:00
6:26 AM,62.6,62.6,100,29.90,2.0,South,3.5,-,N/A,,Clear,180,2013-06-18 10:26:00
6:53 AM,64.0,62.1,93,29.88,2.5,Calm,Calm,-,N/A,,Clear,0,2013-06-18 10:53:00
7:18 AM,66.2,62.6,88,29.90,3.0,Calm,Calm,-,N/A,,Clear,0,2013-06-18 11:18:00
7:53 AM,68.0,64.0,87,29.88,4.0,Calm,Calm,-,N/A,,Clear,0,2013-06-18 11:53:00
8:53 AM,73.0,64.0,73,29.88,6.0,NNE,4.6,-,N/A,,Haze,30,2013-06-18 12:53:00
9:53 AM,73.9,64.0,71,29.91,6.0,North,12.7,-,N/A,,Haze,360,2013-06-18 13:53:00
10:42 AM,73.4,64.4,73,29.94,6.0,North,12.7,-,N/A,,Haze,360,2013-06-18 14:42:00
10:53 AM,72.0,64.0,76,29.93,6.0,North,12.7,-,N/A,,Haze,360,2013-06-18 14:53:00
11:03 AM,73.4,64.4,73,29.94,6.0,North,12.7,-,N/A,,Haze,10,2013-06-18 15:03:00
11:53 AM,72.0,64.0,76,29.94,7.0,NNE,13.8,-,N/A,,Mostly Cloudy,30,2013-06-18 15:53:00
12:12 PM,73.4,62.6,69,29.95,7.0,NNE,13.8,-,N/A,,Mostly Cloudy,20,2013-06-18 16:12:00
12:53 PM,71.1,62.1,73,29.95,7.0,NNE,11.5,20.7,N/A,,Overcast,20,2013-06-18 16:53:00
1:39 PM,73.4,62.6,69,29.95,10.0,NNE,13.8,-,N/A,,Mostly Cloudy,20,2013-06-18 17:39:00
1:53 PM,75.0,62.1,64,29.93,10.0,NNE,13.8,19.6,N/A,,Scattered Clouds,20,2013-06-18 17:53:00
2:53 PM,75.9,62.1,62,29.93,10.0,North,15.0,20.7,N/A,,Partly Cloudy,10,2013-06-18 18:53:00
3:53 PM,75.9,61.0,60,29.92,10.0,NNE,15.0,26.5,N/A,,Clear,20,2013-06-18 19:53:00
4:53 PM,73.0,60.1,64,29.94,9.0,NNE,19.6,-,N/A,,Partly Cloudy,20,2013-06-18 20:53:00
5:53 PM,72.0,59.0,64,29.94,10.0,NNE,16.1,25.3,N/A,,Scattered Clouds,20,2013-06-18 21:53:00
6:53 PM,70.0,57.0,63,29.95,10.0,NNE,17.3,26.5,N/A,,Clear,20,2013-06-18 22:53:00
7:53 PM,66.9,55.9,68,29.97,9.0,NNE,21.9,-,N/A,,Clear,20,2013-06-18 23:53:00
8:17 PM,66.2,55.4,68,30.00,8.0,NNE,17.3,25.3,N/A,,Mostly Cloudy,20,2013-06-19 00:17:00
8:40 PM,64.4,55.4,73,30.01,8.0,NNE,13.8,24.2,N/A,,Scattered Clouds,30,2013-06-19 00:40:00
8:53 PM,64.0,55.9,75,30.00,8.0,NNE,13.8,20.7,N/A,,Clear,20,2013-06-19 00:53:00
9:53 PM,62.1,55.0,78,30.01,10.0,NNE,9.2,-,N/A,,Clear,30,2013-06-19 01:53:00
10:53 PM,60.1,55.0,83,30.03,10.0,NNE,9.2,-,N/A,,Clear,30,2013-06-19 02:53:00
11:53 PM,59.0,55.0,87,30.04,10.0,NNE,9.2,-,N/A,,Clear,30,2013-06-19 03:53:00